Time;durP1;ratioP1;P1;durP2;ratioP2;P2;SDS_P1;SDS_P2;PMS_P1;PMS_P2;Temp;Humidity;BMP_temperature;BMP_pressure;BME280_temperature;BME280_humidity;BME280_pressure;Samples;Min_cycle;Max_cycle;Signal;HPM_P1;HPM_P2
2023/06/30 00:01:56;;;;;;;11.23;8.05;;;19.30;82.20;;;;;;5063065;28;20033;-71
2023/06/30 00:04:27;;;;;;;11.90;7.75;;;19.20;81.90;;;;;;5062368;28;20047;-72
2023/06/30 00:06:56;;;;;;;8.40;7.60;;;19.20;82.80;;;;;;5060896;28;20060;-72
2023/06/30 00:09:23;;;;;;;7.85;7.00;;;19.20;82.30;;;;;;5065046;28;20063;-73
2023/06/30 00:11:50;;;;;;;11.63;7.38;;;19.20;82.50;;;;;;5063227;28;20033;-73
2023/06/30 00:14:16;;;;;;;9.30;6.97;;;19.20;82.40;;;;;;5065074;28;20743;-72
2023/06/30 00:16:42;;;;;;;8.35;7.53;;;19.20;82.20;;;;;;5061488;28;20845;-72
2023/06/30 00:19:09;;;;;;;10.38;7.10;;;19.20;82.50;;;;;;5061819;28;20083;-73
2023/06/30 00:21:35;;;;;;;7.85;6.60;;;19.20;82.40;;;;;;5063215;28;20050;-72
2023/06/30 00:24:04;;;;;;;9.07;7.15;;;19.10;82.60;;;;;;5061548;28;20423;-72
2023/06/30 00:26:31;;;;;;;7.30;6.57;;;19.10;82.50;;;;;;5061635;28;20663;-71
2023/06/30 00:28:58;;;;;;;6.90;6.20;;;19.10;82.40;;;;;;5061825;28;20116;-72
2023/06/30 00:31:24;;;;;;;8.23;6.30;;;19.10;82.20;;;;;;5058882;28;20554;-73
2023/06/30 00:33:50;;;;;;;7.75;6.88;;;19.10;82.30;;;;;;5058154;28;20697;-72
2023/06/30 00:36:16;;;;;;;7.10;6.45;;;19.10;82.20;;;;;;5060940;28;20039;-72
2023/06/30 00:38:42;;;;;;;7.45;6.70;;;19.10;82.20;;;;;;5058250;28;20028;-71
2023/06/30 00:41:08;;;;;;;8.25;7.10;;;19.10;82.20;;;;;;5061480;28;20039;-72
2023/06/30 00:43:33;;;;;;;8.52;7.32;;;19.00;82.60;;;;;;5059149;28;20033;-71
2023/06/30 00:45:59;;;;;;;8.07;6.93;;;19.00;83.00;;;;;;5063071;28;20035;-71
2023/06/30 00:48:26;;;;;;;8.30;6.93;;;19.00;82.90;;;;;;5063070;28;20044;-72
2023/06/30 00:50:52;;;;;;;7.72;6.95;;;19.00;82.90;;;;;;5062834;28;20415;-70
2023/06/30 00:53:19;;;;;;;10.10;7.15;;;18.90;83.10;;;;;;5060962;28;20036;-71
2023/06/30 00:55:45;;;;;;;10.82;7.32;;;18.90;83.30;;;;;;5061968;28;20033;-71
2023/06/30 00:58:11;;;;;;;9.07;7.07;;;18.90;83.20;;;;;;5057680;28;20496;-71
2023/06/30 01:00:37;;;;;;;8.45;6.75;;;18.90;83.50;;;;;;5059776;28;20041;-71
2023/06/30 01:03:09;;;;;;;8.70;7.80;;;18.90;83.30;;;;;;5059153;28;20032;-73
2023/06/30 01:06:00;;;;;;;8.77;7.88;;;18.90;83.10;;;;;;5059139;28;20404;-73
2023/06/30 01:08:37;;;;;;;8.77;7.88;;;18.90;83.50;;;;;;5060604;28;20119;-72
2023/06/30 01:11:04;;;;;;;10.25;8.05;;;18.90;83.30;;;;;;5061448;28;20032;-72
2023/06/30 01:13:32;;;;;;;9.85;8.77;;;18.90;83.90;;;;;;5061223;28;20048;-72
2023/06/30 01:15:58;;;;;;;9.10;8.02;;;18.80;83.40;;;;;;5062970;28;20036;-73
2023/06/30 01:18:26;;;;;;;16.17;9.10;;;18.80;83.50;;;;;;5062054;28;20036;-73
2023/06/30 01:20:55;;;;;;;12.75;9.02;;;18.80;83.40;;;;;;5063132;28;20036;-73
2023/06/30 01:23:34;;;;;;;11.50;9.30;;;18.80;83.70;;;;;;5061850;28;20036;-72
2023/06/30 01:26:01;;;;;;;12.63;9.27;;;18.80;83.50;;;;;;5061185;28;20033;-73
2023/06/30 01:28:28;;;;;;;13.30;9.73;;;18.80;83.60;;;;;;5060210;28;20548;-72
2023/06/30 01:30:56;;;;;;;12.55;10.10;;;18.80;83.50;;;;;;5060945;28;20051;-73
2023/06/30 01:33:22;;;;;;;10.35;9.30;;;18.80;84.60;;;;;;5059928;28;20677;-72
2023/06/30 01:35:49;;;;;;;11.00;9.65;;;18.80;84.10;;;;;;5062997;28;20372;-71
2023/06/30 01:38:15;;;;;;;12.52;10.23;;;18.80;83.70;;;;;;5058601;28;20043;-73
2023/06/30 01:40:43;;;;;;;12.15;10.07;;;18.80;83.70;;;;;;5059502;28;20047;-72
2023/06/30 01:43:10;;;;;;;13.23;10.73;;;18.80;83.90;;;;;;5062342;28;20029;-72
2023/06/30 01:45:36;;;;;;;13.45;10.90;;;18.70;83.90;;;;;;5061340;28;20536;-72
2023/06/30 01:48:02;;;;;;;13.38;11.38;;;18.70;83.90;;;;;;5042971;28;20040;-71
2023/06/30 01:50:29;;;;;;;13.85;10.90;;;18.70;83.70;;;;;;5058971;28;20124;-72
2023/06/30 01:52:56;;;;;;;15.07;11.30;;;18.70;83.80;;;;;;5061393;28;20109;-73
2023/06/30 01:55:22;;;;;;;16.15;11.05;;;18.70;84.10;;;;;;5062421;28;20025;-72
2023/06/30 01:57:51;;;;;;;13.52;11.57;;;18.70;84.10;;;;;;5060552;28;20025;-72
2023/06/30 02:00:17;;;;;;;13.20;11.15;;;18.70;83.90;;;;;;5058861;28;20400;-72
2023/06/30 02:02:45;;;;;;;15.57;11.50;;;18.70;84.50;;;;;;5058632;28;20037;-73
2023/06/30 02:05:12;;;;;;;13.32;10.77;;;18.70;84.20;;;;;;5060569;28;20081;-73
2023/06/30 02:07:38;;;;;;;15.70;11.63;;;18.60;84.70;;;;;;5062491;28;20028;-73
2023/06/30 02:10:07;;;;;;;16.70;11.73;;;18.60;84.70;;;;;;5059392;28;20039;-73
2023/06/30 02:12:34;;;;;;;14.88;12.23;;;18.60;84.40;;;;;;5058196;28;20056;-73
2023/06/30 02:15:00;;;;;;;17.65;12.27;;;18.60;84.60;;;;;;5060546;28;20043;-73
2023/06/30 02:17:32;;;;;;;17.75;13.45;;;18.60;85.10;;;;;;5064352;28;20045;-72
2023/06/30 02:19:59;;;;;;;18.60;15.00;;;18.60;84.80;;;;;;5064174;28;20044;-72
2023/06/30 02:22:26;;;;;;;22.90;14.98;;;18.60;84.70;;;;;;5063619;28;20090;-72
2023/06/30 02:24:54;;;;;;;23.35;15.88;;;18.60;84.90;;;;;;5061701;28;20036;-72
2023/06/30 02:27:23;;;;;;;19.92;15.60;;;18.60;84.90;;;;;;5063552;28;20040;-71
2023/06/30 02:29:50;;;;;;;21.20;14.93;;;18.60;84.90;;;;;;5065165;28;20503;-70
2023/06/30 02:32:16;;;;;;;17.42;13.57;;;18.60;85.20;;;;;;5063886;28;20043;-71
2023/06/30 02:34:42;;;;;;;19.65;13.45;;;18.60;84.90;;;;;;5063300;28;20565;-70
2023/06/30 02:37:08;;;;;;;17.70;13.02;;;18.60;85.10;;;;;;5063939;28;20073;-70
2023/06/30 02:39:34;;;;;;;18.67;13.55;;;18.60;85.20;;;;;;5063541;28;20068;-71
2023/06/30 02:42:00;;;;;;;16.45;12.98;;;18.60;85.20;;;;;;5065130;28;20071;-70
2023/06/30 02:44:26;;;;;;;17.70;13.60;;;18.50;85.00;;;;;;5062582;28;20486;-69
2023/06/30 02:46:52;;;;;;;14.85;13.00;;;18.50;85.00;;;;;;5048277;28;20032;-70
2023/06/30 02:49:17;;;;;;;19.02;14.57;;;18.50;84.90;;;;;;5066072;28;20041;-71
2023/06/30 02:51:43;;;;;;;19.95;14.57;;;18.50;85.30;;;;;;5065164;28;20040;-70
2023/06/30 02:54:09;;;;;;;17.08;14.68;;;18.50;85.00;;;;;;5066403;28;20036;-71
2023/06/30 02:56:36;;;;;;;17.50;14.55;;;18.50;85.10;;;;;;5068095;28;20033;-71
2023/06/30 02:59:02;;;;;;;15.45;13.10;;;18.60;85.30;;;;;;5065453;28;21043;-71
2023/06/30 03:01:28;;;;;;;15.88;13.15;;;18.60;85.10;;;;;;5062485;28;20548;-70
2023/06/30 03:03:54;;;;;;;14.82;12.75;;;18.50;85.20;;;;;;5061659;28;20506;-73
2023/06/30 03:06:24;;;;;;;14.90;12.52;;;18.50;85.00;;;;;;5062681;28;20067;-73
2023/06/30 03:08:50;;;;;;;17.45;13.18;;;18.50;85.50;;;;;;5046182;28;20540;-72
2023/06/30 03:11:17;;;;;;;14.80;12.25;;;18.50;85.40;;;;;;5060667;28;20548;-71
2023/06/30 03:13:44;;;;;;;15.23;13.25;;;18.50;85.10;;;;;;5062543;28;20129;-72
2023/06/30 03:16:12;;;;;;;14.40;12.90;;;18.50;85.10;;;;;;5055688;28;20044;-71
2023/06/30 03:18:40;;;;;;;15.15;12.70;;;18.50;85.60;;;;;;5061269;28;20044;-71
2023/06/30 03:21:06;;;;;;;15.82;12.70;;;18.50;85.80;;;;;;5059643;28;20036;-72
2023/06/30 03:23:33;;;;;;;13.80;12.35;;;18.50;85.80;;;;;;5061178;28;20473;-73
2023/06/30 03:25:59;;;;;;;16.00;13.02;;;18.50;85.60;;;;;;5062487;28;20024;-73
2023/06/30 03:28:25;;;;;;;15.63;12.43;;;18.40;85.70;;;;;;5036014;28;20024;-76
2023/06/30 03:30:52;;;;;;;17.95;13.43;;;18.40;85.90;;;;;;5060246;28;20036;-73
2023/06/30 03:33:21;;;;;;;14.82;13.07;;;18.40;85.80;;;;;;5059821;28;20040;-73
2023/06/30 03:35:48;;;;;;;17.48;13.93;;;18.40;85.60;;;;;;5058189;28;20584;-73
2023/06/30 03:38:14;;;;;;;20.27;15.57;;;18.40;85.70;;;;;;5059689;28;20052;-72
2023/06/30 03:40:40;;;;;;;21.30;16.58;;;18.40;85.80;;;;;;5064086;28;20033;-73
2023/06/30 03:43:06;;;;;;;26.77;19.45;;;18.40;86.30;;;;;;5045039;28;20056;-75
2023/06/30 03:45:32;;;;;;;25.35;19.17;;;18.40;87.00;;;;;;5046293;28;20032;-71
2023/06/30 03:47:59;;;;;;;27.27;19.88;;;18.50;86.80;;;;;;5059236;28;20396;-71
2023/06/30 03:50:25;;;;;;;26.88;20.58;;;18.50;86.00;;;;;;5061833;28;20174;-71
2023/06/30 03:52:51;;;;;;;28.10;20.73;;;18.60;85.50;;;;;;5061608;28;20488;-70
2023/06/30 03:55:17;;;;;;;30.13;21.48;;;18.50;85.40;;;;;;5063133;28;20039;-70
2023/06/30 03:57:43;;;;;;;27.17;20.55;;;18.60;85.20;;;;;;5061956;28;20415;-70
2023/06/30 04:00:12;;;;;;;23.83;18.33;;;18.50;85.60;;;;;;5060943;28;20123;-72
2023/06/30 04:02:39;;;;;;;22.77;17.77;;;18.50;85.60;;;;;;5064407;28;20056;-73
2023/06/30 04:05:05;;;;;;;21.38;16.20;;;18.60;85.10;;;;;;5062909;28;20032;-72
2023/06/30 04:07:31;;;;;;;24.25;15.63;;;18.60;85.70;;;;;;5063253;28;20028;-72
2023/06/30 04:09:57;;;;;;;21.33;14.38;;;18.50;85.50;;;;;;5064275;28;20087;-73
2023/06/30 04:12:23;;;;;;;16.95;13.93;;;18.50;85.60;;;;;;5060815;28;20040;-73
2023/06/30 04:14:49;;;;;;;18.92;13.68;;;18.60;86.10;;;;;;5060031;28;20037;-73
2023/06/30 04:17:15;;;;;;;14.60;11.63;;;18.50;86.00;;;;;;5060093;28;20523;-72
2023/06/30 04:19:41;;;;;;;11.02;9.80;;;18.50;86.00;;;;;;5060518;28;20028;-72
2023/06/30 04:22:07;;;;;;;11.00;9.90;;;18.50;85.80;;;;;;5059403;28;20071;-73
2023/06/30 04:24:33;;;;;;;14.93;10.68;;;18.50;85.80;;;;;;5060672;28;20039;-73
2023/06/30 04:26:59;;;;;;;11.82;9.90;;;18.50;85.70;;;;;;5061994;28;20036;-73
2023/06/30 04:29:25;;;;;;;13.65;10.65;;;18.50;86.00;;;;;;5059577;28;20037;-73
2023/06/30 04:31:51;;;;;;;12.75;10.48;;;18.60;85.80;;;;;;5060875;28;20044;-73
2023/06/30 04:34:17;;;;;;;11.20;9.57;;;18.60;85.90;;;;;;5062296;28;20667;-73
2023/06/30 04:36:42;;;;;;;11.00;9.45;;;18.60;86.10;;;;;;5057101;28;20033;-73
2023/06/30 04:39:08;;;;;;;10.55;9.48;;;18.60;85.90;;;;;;5060090;28;20048;-73
2023/06/30 04:41:34;;;;;;;12.65;9.75;;;18.70;85.50;;;;;;5059770;28;20036;-73
2023/06/30 04:44:00;;;;;;;10.90;9.68;;;18.80;85.50;;;;;;5061254;28;20035;-72
2023/06/30 04:46:27;;;;;;;10.55;9.23;;;18.80;85.30;;;;;;5060074;28;20489;-72
2023/06/30 04:48:55;;;;;;;11.27;9.50;;;18.90;85.40;;;;;;5060976;28;20084;-72
2023/06/30 04:51:21;;;;;;;10.77;9.38;;;18.90;85.20;;;;;;5060213;28;20082;-72
2023/06/30 04:53:47;;;;;;;11.77;10.10;;;18.90;85.20;;;;;;5059615;28;20044;-71
2023/06/30 04:56:13;;;;;;;13.70;9.95;;;18.90;85.10;;;;;;5061437;28;20040;-71
2023/06/30 04:58:39;;;;;;;13.23;10.48;;;19.00;85.10;;;;;;5059231;28;20040;-72
2023/06/30 05:01:05;;;;;;;11.57;9.40;;;18.90;85.00;;;;;;5059642;28;20070;-72
2023/06/30 05:03:31;;;;;;;14.25;9.80;;;19.00;84.90;;;;;;5060239;28;20052;-72
2023/06/30 05:05:58;;;;;;;11.85;9.75;;;19.00;84.90;;;;;;5058936;28;20529;-72
2023/06/30 05:08:24;;;;;;;11.65;9.93;;;19.00;84.90;;;;;;5056843;28;20128;-72
2023/06/30 05:10:50;;;;;;;11.07;9.95;;;19.00;84.90;;;;;;5060274;28;20124;-72
2023/06/30 05:13:15;;;;;;;11.85;10.63;;;19.00;84.70;;;;;;5061405;28;20055;-72
2023/06/30 05:15:41;;;;;;;12.25;10.82;;;19.10;84.40;;;;;;5057354;28;20055;-71
2023/06/30 05:18:07;;;;;;;12.57;10.32;;;19.10;85.20;;;;;;5060178;28;20047;-71
2023/06/30 05:20:34;;;;;;;11.52;10.18;;;19.10;84.70;;;;;;5059076;28;20033;-72
2023/06/30 05:23:00;;;;;;;12.77;10.38;;;19.10;84.30;;;;;;5057846;28;20037;-71
2023/06/30 05:25:26;;;;;;;13.45;10.95;;;19.10;84.30;;;;;;5059176;28;20028;-72
2023/06/30 05:27:52;;;;;;;12.27;11.05;;;19.20;84.30;;;;;;5061201;28;20044;-71
2023/06/30 05:30:18;;;;;;;12.80;10.65;;;19.10;84.40;;;;;;5058863;28;20029;-72
2023/06/30 05:32:44;;;;;;;14.32;11.50;;;19.10;84.30;;;;;;5060062;28;20423;-72
2023/06/30 05:35:10;;;;;;;14.55;11.75;;;19.10;84.50;;;;;;5057037;28;20033;-72
2023/06/30 05:37:36;;;;;;;13.40;12.07;;;19.10;84.30;;;;;;5057684;28;20029;-72
2023/06/30 05:40:03;;;;;;;12.80;11.55;;;19.20;84.00;;;;;;5060207;28;20446;-72
2023/06/30 05:42:30;;;;;;;12.82;11.00;;;19.20;84.20;;;;;;5060271;28;20087;-72
2023/06/30 05:44:56;;;;;;;14.23;12.10;;;19.20;84.50;;;;;;5057942;28;20033;-72
2023/06/30 05:47:22;;;;;;;16.55;12.10;;;19.10;84.70;;;;;;5060103;28;20037;-72
2023/06/30 05:49:47;;;;;;;15.38;12.63;;;19.10;84.60;;;;;;5057653;28;20064;-73
2023/06/30 05:52:13;;;;;;;14.32;12.82;;;19.10;84.70;;;;;;5061040;28;20107;-72
2023/06/30 05:54:41;;;;;;;14.10;12.68;;;19.20;85.00;;;;;;5058697;28;20036;-72
2023/06/30 05:57:07;;;;;;;15.05;12.43;;;19.20;84.70;;;;;;5058012;28;20039;-73
2023/06/30 05:59:33;;;;;;;14.98;13.23;;;19.20;84.90;;;;;;5058919;28;20079;-72
2023/06/30 06:01:59;;;;;;;15.40;13.00;;;19.20;84.50;;;;;;5059819;28;20059;-72
2023/06/30 06:04:25;;;;;;;15.77;13.73;;;19.20;84.70;;;;;;5059888;28;20032;-72
2023/06/30 06:06:50;;;;;;;17.55;14.70;;;19.20;84.50;;;;;;5058892;28;20117;-72
2023/06/30 06:09:18;;;;;;;16.20;14.02;;;19.20;84.70;;;;;;5058735;28;20033;-71
2023/06/30 06:11:44;;;;;;;17.58;15.18;;;19.20;84.80;;;;;;5059119;28;20453;-70
2023/06/30 06:14:10;;;;;;;16.92;13.88;;;19.20;84.70;;;;;;5059606;28;20162;-72
2023/06/30 06:16:36;;;;;;;18.92;15.40;;;19.20;84.60;;;;;;5059986;28;20033;-73
2023/06/30 06:19:02;;;;;;;19.17;14.57;;;19.10;84.60;;;;;;5059134;28;20738;-73
2023/06/30 06:21:28;;;;;;;15.52;13.57;;;19.10;84.40;;;;;;5059013;28;20051;-72
2023/06/30 06:23:55;;;;;;;20.85;14.48;;;19.20;84.50;;;;;;5060372;28;20566;-73
2023/06/30 06:26:20;;;;;;;17.25;14.68;;;19.20;84.50;;;;;;5059146;28;20040;-72
2023/06/30 06:28:46;;;;;;;18.05;14.20;;;19.20;84.60;;;;;;5058366;28;20427;-71
2023/06/30 06:31:12;;;;;;;14.15;12.65;;;19.20;84.70;;;;;;5058928;28;20027;-72
2023/06/30 06:33:38;;;;;;;15.10;13.02;;;19.20;84.40;;;;;;5056702;28;20037;-72
2023/06/30 06:36:04;;;;;;;15.13;12.40;;;19.20;84.50;;;;;;5058673;28;20484;-72
2023/06/30 06:38:30;;;;;;;14.35;12.10;;;19.30;84.20;;;;;;5059435;28;20479;-73
2023/06/30 06:40:56;;;;;;;14.73;12.00;;;19.30;84.30;;;;;;5059187;28;20044;-72
2023/06/30 06:43:26;;;;;;;13.55;12.15;;;19.20;84.10;;;;;;5059329;28;20774;-72
2023/06/30 06:45:52;;;;;;;13.43;11.93;;;19.30;83.90;;;;;;5060531;28;20091;-73
2023/06/30 06:48:20;;;;;;;12.25;10.95;;;19.30;84.40;;;;;;5059460;28;20033;-73
2023/06/30 06:50:51;;;;;;;12.70;11.10;;;19.30;84.30;;;;;;5057726;28;20032;-72
2023/06/30 06:53:20;;;;;;;12.20;10.90;;;19.30;84.30;;;;;;5057943;28;20544;-72
2023/06/30 06:55:50;;;;;;;11.25;10.15;;;19.40;83.80;;;;;;5056906;28;20334;-72
2023/06/30 06:58:17;;;;;;;11.43;10.23;;;19.40;84.10;;;;;;5058533;28;20377;-72
2023/06/30 07:00:45;;;;;;;11.32;9.50;;;19.40;84.00;;;;;;5059818;28;20037;-73
2023/06/30 07:03:11;;;;;;;10.73;8.95;;;19.40;83.80;;;;;;5061459;28;20120;-74
2023/06/30 07:05:39;;;;;;;10.70;9.60;;;19.50;83.50;;;;;;5062461;28;20131;-72
2023/06/30 07:08:07;;;;;;;10.80;9.70;;;19.40;83.50;;;;;;5063965;28;20045;-73
2023/06/30 07:10:33;;;;;;;9.23;8.43;;;19.40;83.70;;;;;;5061348;28;20082;-73
2023/06/30 07:12:59;;;;;;;10.05;9.05;;;19.50;83.70;;;;;;5062419;28;20074;-73
2023/06/30 07:15:25;;;;;;;9.93;8.50;;;19.50;83.70;;;;;;5062470;28;20036;-71
2023/06/30 07:17:51;;;;;;;11.70;8.80;;;19.50;83.80;;;;;;5060813;28;20095;-72
2023/06/30 07:20:17;;;;;;;13.15;9.20;;;19.50;83.90;;;;;;5062462;28;20051;-72
2023/06/30 07:22:43;;;;;;;9.65;8.70;;;19.60;83.70;;;;;;5062395;28;20052;-71
2023/06/30 07:25:09;;;;;;;10.50;9.07;;;19.70;83.90;;;;;;5061461;28;20473;-72
2023/06/30 07:27:38;;;;;;;10.63;9.73;;;19.70;83.70;;;;;;5062853;28;20041;-71
2023/06/30 07:30:07;;;;;;;11.38;9.02;;;19.70;83.30;;;;;;5061820;28;20033;-73
2023/06/30 07:32:34;;;;;;;10.35;9.35;;;19.70;83.20;;;;;;5060118;28;20037;-72
2023/06/30 07:35:02;;;;;;;10.18;8.43;;;19.70;82.90;;;;;;5058438;28;20041;-72
2023/06/30 07:37:28;;;;;;;8.88;8.15;;;19.70;82.80;;;;;;5059787;28;20070;-72
2023/06/30 07:39:54;;;;;;;9.10;8.20;;;19.70;82.70;;;;;;5059684;28;20040;-72
2023/06/30 07:42:20;;;;;;;9.45;8.35;;;19.80;82.70;;;;;;5060644;28;20032;-71
2023/06/30 07:44:46;;;;;;;8.70;7.85;;;19.80;82.60;;;;;;5059927;28;20127;-71
2023/06/30 07:47:12;;;;;;;9.40;8.48;;;19.90;82.60;;;;;;5058780;28;20039;-72
2023/06/30 07:49:39;;;;;;;9.07;7.57;;;19.90;82.60;;;;;;5057157;28;20040;-72
2023/06/30 07:52:05;;;;;;;9.68;8.00;;;19.90;82.30;;;;;;5059434;28;20024;-72
2023/06/30 07:54:31;;;;;;;9.82;8.23;;;19.90;82.10;;;;;;5059472;28;20375;-73
2023/06/30 07:56:57;;;;;;;8.70;7.85;;;19.90;82.20;;;;;;5059432;28;20041;-73
2023/06/30 07:59:23;;;;;;;7.65;7.03;;;19.90;81.70;;;;;;5059027;28;20138;-73
2023/06/30 08:01:49;;;;;;;8.20;7.60;;;20.00;81.90;;;;;;5059125;28;20106;-71
2023/06/30 08:04:16;;;;;;;8.68;7.78;;;20.00;81.90;;;;;;5060065;28;20036;-71
2023/06/30 08:06:41;;;;;;;9.15;8.25;;;20.00;81.90;;;;;;5058169;28;20047;-72
2023/06/30 08:09:07;;;;;;;8.73;7.78;;;20.00;81.90;;;;;;5059343;28;20033;-72
2023/06/30 08:11:33;;;;;;;10.40;8.15;;;20.10;81.70;;;;;;5056963;28;20043;-71
2023/06/30 08:14:01;;;;;;;8.85;8.05;;;20.10;81.90;;;;;;5056733;28;20029;-70
2023/06/30 08:16:28;;;;;;;9.90;7.63;;;20.20;81.80;;;;;;5058224;28;20037;-74
2023/06/30 08:18:54;;;;;;;8.65;7.72;;;20.20;82.00;;;;;;5058763;28;20040;-71
2023/06/30 08:21:20;;;;;;;8.45;7.60;;;20.20;82.10;;;;;;5059500;28;20040;-71
2023/06/30 08:23:45;;;;;;;10.43;8.43;;;20.30;82.40;;;;;;5059395;28;20114;-71
2023/06/30 08:26:11;;;;;;;9.68;7.97;;;20.20;82.50;;;;;;5058365;28;20029;-71
2023/06/30 08:28:37;;;;;;;8.55;7.68;;;20.20;82.80;;;;;;5058952;28;20043;-71
2023/06/30 08:31:03;;;;;;;10.68;8.75;;;20.10;82.80;;;;;;5059131;28;20028;-71
2023/06/30 08:33:30;;;;;;;10.75;8.38;;;20.10;82.90;;;;;;5060780;28;20060;-70
2023/06/30 08:35:56;;;;;;;8.82;7.63;;;20.10;82.70;;;;;;5060496;28;20040;-70
2023/06/30 08:38:22;;;;;;;13.48;8.13;;;20.20;83.70;;;;;;5061833;28;20128;-70
2023/06/30 08:40:48;;;;;;;9.23;7.85;;;20.10;84.50;;;;;;5060388;28;20033;-70
2023/06/30 08:43:17;;;;;;;8.50;7.68;;;20.10;84.40;;;;;;5061059;28;20035;-70
2023/06/30 08:45:46;;;;;;;13.07;8.15;;;20.20;84.90;;;;;;5060555;28;20056;-70
2023/06/30 08:48:13;;;;;;;9.15;7.63;;;20.10;85.70;;;;;;5062499;28;20491;-70
2023/06/30 08:50:39;;;;;;;8.30;7.50;;;20.10;85.60;;;;;;5058349;28;20042;-70
2023/06/30 08:53:06;;;;;;;8.45;7.63;;;20.10;85.40;;;;;;5060720;28;20028;-70
2023/06/30 08:55:32;;;;;;;8.10;7.38;;;20.10;85.60;;;;;;5060850;28;20513;-72
2023/06/30 08:57:58;;;;;;;8.82;7.47;;;20.10;85.90;;;;;;5060348;28;20037;-71
2023/06/30 09:00:24;;;;;;;7.57;6.88;;;20.00;85.80;;;;;;5061506;28;20059;-71
2023/06/30 09:02:53;;;;;;;10.40;8.05;;;20.00;85.90;;;;;;5060903;28;20503;-72
2023/06/30 09:05:22;;;;;;;8.73;7.80;;;20.10;86.50;;;;;;5059054;28;20044;-71
2023/06/30 09:07:54;;;;;;;7.85;7.00;;;20.00;86.20;;;;;;5059535;28;20036;-71
2023/06/30 09:10:23;;;;;;;7.90;7.13;;;20.00;86.00;;;;;;5062294;28;20804;-71
2023/06/30 09:12:54;;;;;;;8.57;7.70;;;20.00;86.00;;;;;;5059685;28;20053;-70
2023/06/30 09:15:21;;;;;;;7.75;6.88;;;20.00;86.30;;;;;;5062025;28;20040;-70
2023/06/30 09:17:48;;;;;;;9.10;7.65;;;20.00;86.60;;;;;;5060962;28;20065;-71
2023/06/30 09:20:14;;;;;;;8.07;7.20;;;20.00;86.50;;;;;;5060292;28;20041;-71
2023/06/30 09:22:40;;;;;;;8.15;7.38;;;20.00;86.40;;;;;;5057247;28;20075;-71
2023/06/30 09:25:27;;;;;;;8.82;7.93;;;20.00;86.80;;;;;;5061546;28;20388;-71
2023/06/30 09:27:56;;;;;;;9.10;8.25;;;20.00;86.80;;;;;;5058723;28;20032;-71
2023/06/30 09:30:35;;;;;;;10.35;8.75;;;20.10;86.60;;;;;;5059200;28;20040;-71
2023/06/30 09:33:02;;;;;;;9.05;8.25;;;20.10;86.80;;;;;;5058759;28;20036;-71
2023/06/30 09:35:41;;;;;;;8.90;8.10;;;20.10;86.60;;;;;;5059823;28;20593;-71
2023/06/30 09:38:18;;;;;;;10.50;8.80;;;20.10;87.00;;;;;;5059521;28;20305;-70
2023/06/30 09:40:53;;;;;;;9.77;8.52;;;20.10;86.90;;;;;;5061283;28;20547;-70
2023/06/30 09:43:23;;;;;;;10.68;8.95;;;20.10;86.80;;;;;;5060965;28;20033;-70
2023/06/30 09:45:56;;;;;;;9.85;8.90;;;20.20;87.00;;;;;;5059705;28;20040;-70
2023/06/30 09:48:29;;;;;;;10.05;8.55;;;20.10;87.10;;;;;;5058839;28;20037;-70
2023/06/30 09:50:55;;;;;;;12.65;9.38;;;20.20;87.20;;;;;;5058874;28;20033;-70
2023/06/30 09:53:21;;;;;;;9.32;8.50;;;20.30;88.00;;;;;;5060731;28;20155;-70
2023/06/30 09:55:49;;;;;;;9.77;8.77;;;20.30;88.10;;;;;;5060366;28;20128;-70
2023/06/30 09:58:17;;;;;;;11.02;8.82;;;20.30;87.90;;;;;;5059417;28;20115;-70
2023/06/30 10:00:43;;;;;;;10.75;9.50;;;20.40;88.40;;;;;;5058798;28;20056;-71
2023/06/30 10:03:09;;;;;;;9.55;8.63;;;20.40;88.50;;;;;;5058948;28;20044;-70
2023/06/30 10:05:37;;;;;;;16.13;9.55;;;20.40;88.50;;;;;;5056935;28;20028;-70
2023/06/30 10:08:03;;;;;;;9.13;8.15;;;20.50;88.30;;;;;;5059803;28;20481;-70
2023/06/30 10:10:30;;;;;;;10.50;8.90;;;20.50;88.10;;;;;;5057995;28;20052;-71
2023/06/30 10:13:00;;;;;;;11.05;9.00;;;20.50;88.00;;;;;;5058764;28;20029;-71
2023/06/30 10:15:26;;;;;;;9.88;8.88;;;20.50;88.40;;;;;;5058581;28;20507;-70
2023/06/30 10:17:54;;;;;;;9.95;8.63;;;20.50;88.30;;;;;;5060038;28;20052;-70
2023/06/30 10:20:20;;;;;;;10.70;8.77;;;20.50;88.30;;;;;;5052025;28;20060;-70
2023/06/30 10:22:47;;;;;;;8.98;8.18;;;20.50;88.30;;;;;;5058974;28;20476;-71
2023/06/30 10:25:17;;;;;;;9.75;8.50;;;20.60;88.30;;;;;;5060233;28;20029;-71
2023/06/30 10:27:46;;;;;;;8.65;7.85;;;20.50;88.70;;;;;;5057644;28;20402;-71
2023/06/30 10:30:13;;;;;;;9.25;8.07;;;20.50;88.50;;;;;;5058759;28;20060;-71
2023/06/30 10:32:39;;;;;;;8.10;7.40;;;20.60;88.70;;;;;;5057684;28;20132;-70
2023/06/30 10:35:08;;;;;;;8.90;8.00;;;20.60;88.60;;;;;;5060104;28;20044;-71
2023/06/30 10:37:34;;;;;;;7.53;6.93;;;20.60;88.50;;;;;;5062768;28;20036;-71
2023/06/30 10:40:00;;;;;;;8.60;5.95;;;20.60;88.30;;;;;;5064451;28;20032;-70
2023/06/30 10:42:27;;;;;;;7.25;6.65;;;20.50;87.40;;;;;;5063654;28;20127;-71
2023/06/30 10:44:59;;;;;;;7.32;6.30;;;20.50;87.50;;;;;;5063166;28;20060;-70
2023/06/30 10:47:27;;;;;;;6.80;6.10;;;20.50;87.40;;;;;;5063072;28;20033;-69
2023/06/30 10:49:54;;;;;;;6.45;5.20;;;20.50;87.30;;;;;;5062383;28;20040;-70
2023/06/30 10:52:31;;;;;;;5.45;4.93;;;20.40;86.50;;;;;;5062990;28;20496;-71
2023/06/30 10:55:06;;;;;;;5.10;4.60;;;20.40;85.70;;;;;;5060867;28;20132;-70
2023/06/30 10:57:37;;;;;;;5.63;4.57;;;20.30;86.40;;;;;;5061947;28;20304;-71
2023/06/30 11:00:02;;;;;;;5.68;4.60;;;20.30;86.60;;;;;;5062920;28;20461;-71
2023/06/30 11:02:31;;;;;;;5.20;4.70;;;20.30;87.00;;;;;;5062210;28;20032;-71
2023/06/30 11:05:21;;;;;;;4.63;4.22;;;20.30;86.70;;;;;;5063225;28;20032;-71
2023/06/30 11:08:11;;;;;;;5.60;4.38;;;20.30;86.70;;;;;;5063500;28;20469;-70
2023/06/30 11:10:47;;;;;;;4.78;4.30;;;20.40;86.40;;;;;;5061932;28;20123;-70
2023/06/30 11:13:14;;;;;;;5.05;4.45;;;20.30;86.90;;;;;;5063860;28;20060;-70
2023/06/30 11:15:47;;;;;;;4.63;4.22;;;20.30;86.80;;;;;;5063482;28;20040;-70
2023/06/30 11:18:23;;;;;;;7.55;4.93;;;20.40;87.10;;;;;;5061219;28;20478;-70
2023/06/30 11:21:00;;;;;;;5.70;4.72;;;20.40;87.60;;;;;;5063106;28;20037;-70
2023/06/30 11:23:39;;;;;;;8.32;4.75;;;20.40;87.50;;;;;;5062555;28;20037;-71
2023/06/30 11:26:18;;;;;;;7.25;4.82;;;20.40;87.60;;;;;;5061070;28;20403;-72
2023/06/30 11:28:49;;;;;;;5.20;4.70;;;20.50;88.70;;;;;;5061504;28;20389;-71
2023/06/30 11:31:15;;;;;;;5.25;4.75;;;20.50;88.50;;;;;;5062910;28;20020;-71
2023/06/30 11:33:43;;;;;;;6.35;5.13;;;20.50;88.70;;;;;;5063104;28;20557;-71
2023/06/30 11:36:16;;;;;;;5.70;5.20;;;20.50;88.90;;;;;;5063770;28;20040;-72
2023/06/30 11:38:48;;;;;;;6.00;5.40;;;20.50;89.10;;;;;;5060556;28;20560;-72
2023/06/30 11:41:23;;;;;;;6.45;5.30;;;20.50;88.90;;;;;;5061077;28;20063;-72
2023/06/30 11:43:53;;;;;;;;;;;20.60;89.10;;;;;;5061307;28;20036;-72
2023/06/30 11:46:20;;;;;;;6.38;5.72;;;20.60;89.10;;;;;;5060852;28;19920;-72
2023/06/30 11:48:48;;;;;;;5.22;4.68;;;20.60;88.90;;;;;;5061996;28;20422;-76
2023/06/30 11:51:14;;;;;;;5.00;4.53;;;20.50;87.90;;;;;;5061040;28;20422;-72
2023/06/30 11:53:57;;;;;;;5.45;4.60;;;20.50;86.90;;;;;;5061949;28;20033;-72
2023/06/30 11:56:24;;;;;;;7.10;4.85;;;20.50;86.50;;;;;;5059971;28;20036;-70
2023/06/30 11:58:51;;;;;;;4.97;4.40;;;20.50;86.80;;;;;;5059916;28;20097;-70
2023/06/30 12:01:19;;;;;;;4.38;3.97;;;20.50;85.70;;;;;;5061094;28;20041;-70
2023/06/30 12:03:46;;;;;;;5.30;4.18;;;20.60;85.30;;;;;;5062309;28;20094;-71
2023/06/30 12:06:18;;;;;;;7.65;4.15;;;20.60;85.20;;;;;;5060341;28;20245;-70
2023/06/30 12:08:45;;;;;;;5.32;3.65;;;20.60;85.20;;;;;;5058895;28;20392;-70
2023/06/30 12:11:11;;;;;;;4.93;4.05;;;20.60;84.70;;;;;;5061685;28;20033;-72
2023/06/30 12:13:41;;;;;;;4.63;4.22;;;20.60;84.80;;;;;;5061084;28;20052;-72
2023/06/30 12:16:07;;;;;;;4.30;3.95;;;20.70;84.20;;;;;;5061468;28;20029;-72
2023/06/30 12:18:36;;;;;;;4.22;3.83;;;20.70;83.90;;;;;;5061453;28;20040;-73
2023/06/30 12:21:13;;;;;;;6.80;4.50;;;20.70;83.60;;;;;;5059630;28;20037;-72
2023/06/30 12:23:46;;;;;;;4.38;3.97;;;20.80;83.90;;;;;;5061574;28;20096;-72
2023/06/30 12:26:12;;;;;;;4.60;4.15;;;20.80;82.90;;;;;;5060370;28;20032;-72
2023/06/30 12:28:38;;;;;;;4.57;4.15;;;20.80;82.50;;;;;;5060934;28;20036;-73
2023/06/30 12:31:04;;;;;;;4.65;4.10;;;20.90;82.50;;;;;;5060573;28;20040;-72
2023/06/30 12:33:30;;;;;;;5.95;3.92;;;20.90;81.50;;;;;;5061613;28;20064;-74
2023/06/30 12:35:56;;;;;;;4.30;4.00;;;20.90;80.60;;;;;;5060604;28;20040;-72
2023/06/30 12:38:22;;;;;;;4.22;3.85;;;20.80;80.20;;;;;;5060443;28;20059;-74
2023/06/30 12:40:50;;;;;;;4.70;4.30;;;20.80;80.40;;;;;;5060991;28;20511;-73